• Join FlightAware (Why Join?)
  • Login
  • US Flag 
04:31PM EST


 

Airport Tracker/Info


-or-


 

Live Flight TrackerFlight Track Log ✈ EZY2177 ✈ 24-Apr-2013 ✈ EGGW / LTN - EDLW / DTM

Flight Track Log - Related Links

Times and Time Zones

All times are in EDT time to prevent confusion due to time zone crossing. See the EZY2177 flight status page for this flight to view local times or setup timezone preferences in your user account.

Time Position Orientation Groundspeed Altitude Reporting Facility
EDT Latitude Longitude Course Direction KTS MPH feet Rate Location/Type
12:17PM 51.8593 0.6639 91° East  Level Estimated
12:18PM 51.8570 0.7786 92° East  Level Estimated
12:19PM 51.8546 0.8932 92° East  Level Estimated
12:20PM 51.8521 1.0078 92° East  Level Estimated
12:21PM 51.8495 1.1224 92° East  Level Estimated
12:22PM 51.8468 1.2370 92° East  Level Estimated
12:23PM 51.8440 1.3516 92° East  Level Estimated
12:24PM 51.8410 1.4662 92° East  Level Estimated
12:25PM 51.8380 1.5807 92° East  Level Estimated
12:26PM 51.8348 1.6953 93° East  Level Estimated
12:27PM 51.8316 1.8098 93° East  Level Estimated
12:28PM 51.8282 1.9243 93° East  Level Estimated
12:29PM 51.8246 2.0404 93° East  Level Estimated
12:30PM 51.8210 2.1565 93° East  Level Estimated
12:31PM 51.8172 2.2726 93° East  Level Estimated
12:32PM 51.8133 2.3887 93° East  Level Estimated
12:33PM 51.8090 2.5139 93° East  Level Estimated
12:34PM 51.8045 2.6390 93° East  Level Estimated
12:35PM 51.7999 2.7641 93° East  Level Estimated
12:36PM 51.7952 2.8891 93° East  Level Estimated
12:37PM 51.7904 3.0141 94° East  Level Estimated
12:38PM 51.7854 3.1391 94° East  Level Estimated
12:39PM 51.7802 3.2641 94° East  Level Estimated
12:40PM 51.7750 3.3891 94° East  Level Estimated
12:41PM 51.7696 3.5140 94° East  Level Estimated
12:42PM 51.7641 3.6389 94° East  Level Estimated
12:43PM 51.7584 3.7637 94° East  Level Estimated
12:44PM 51.7527 3.8886 94° East  Level Estimated
12:45PM 51.7467 4.0133 94° East  Level Estimated
12:46PM 51.7407 4.1381 94° East  Level Estimated
12:47PM 51.7345 4.2628 95° East  Level Estimated
12:48PM 51.7282 4.3875 95° East  Level Estimated
12:49PM 51.7218 4.5122 95° East  Level Estimated
12:50PM 51.7152 4.6368 95° East  Level Estimated
12:51PM 51.7085 4.7614 95° East  Level Estimated
12:52PM 51.7017 4.8859 95° East  Level Estimated
12:53PM 51.6945 5.0144 95° East  Level Estimated
12:54PM 51.6871 5.1429 95° East  Level Estimated
12:55PM 51.6796 5.2714 95° East  Level Estimated
12:56PM 51.6720 5.3998 95° East  Level Estimated
12:57PM 51.6643 5.5281 96° East  Level Estimated
12:58PM 51.6564 5.6564 96° East  Level Estimated
12:59PM 51.6483 5.7847 96° East  Level Estimated
01:00PM 51.6402 5.9129 96° East  Level Estimated
01:01PM 51.6319 6.0411 96° East  Level Estimated
01:02PM 51.6234 6.1692 96° East  Level Estimated
01:03PM 51.6148 6.2973 96° East  Level Estimated
01:04PM 51.6061 6.4253 96° East  Level Estimated
01:05PM 51.5972 6.5533 96° East  Level Estimated
01:06PM 51.5882 6.6812 96° East  Level Estimated
01:07PM 51.5791 6.8091 97° East  Level Estimated
01:08PM 51.5698 6.9369 97° East  Level Estimated
01:09PM 51.5603 7.0647 97° East  Level Estimated
01:10PM 51.5508 7.1924 97° East  Level Estimated
01:11PM 51.5411 7.3201 97° East  Level Estimated
01:12PM 51.5312 7.4477 97° East  Level Estimated
01:13PM 51.5212 7.5752 97° East  Level Estimated
01:14PM 51.5183 7.6122 97° East  Level Estimated
01:15PM 51.5183 7.6122 17° North  Level Estimated
01:16PM 51.5183 7.6122 17° North  Level Estimated
01:17PM 51.5183 7.6122 17° North  Level Estimated
01:18PM 51.5183 7.6122 17° North  Level Estimated
01:19PM 51.5183 7.6122 17° North  Level Estimated
01:20PM 51.5183 7.6122 17° North  Level Estimated
01:21PM 51.5183 7.6122 17° North  Level Estimated
01:22PM 51.5183 7.6122 17° North  Level Estimated
01:23PM 51.5183 7.6122 17° North  Level Estimated
01:24PM 51.5183 7.6122 17° North  Level Estimated
01:25PM 51.5183 7.6122 17° North  Level Estimated
01:26PM 51.5183 7.6122 17° North  Level Estimated